KLM1049 LIPZ-LPPR
Flight info
| Callsign | KLM1049 |
|---|---|
| Flight time | N/A |
| Altitude | 19000 |
| Route | CHI M859 ROVIG/N0458F350 DCT GEKBA DCT VAMTU DCT KOLON DCT GANGU DCT PADKO DCT DIVKO DCT NILDU/N0457F370 DCT NENDA N975 CJN N733 ZMR DCT ADORO/N0461F380 DCT ELGIX |
| Aircraft | B738/M-SDE2E3FGHIRWXY/LB1 |
Departure
| Time | 2026-05-08 08:48 |
|---|---|
| Airport | Venice Marco Polo Airport (LIPZ) |
Arrival
| Time | N/A |
|---|---|
| Airport | Francisco de Sá Carneiro Airport (LPPR) |
| Time | Latitude | Longitude | Altitude | Speed | Heading |
|---|---|---|---|---|---|
| 2026-05-08 08:41 | 45.50050 | 12.33915 | 13 ft | 0 kts | 312° |
| 2026-05-08 08:42 | 45.50049 | 12.33916 | 13 ft | 2 kts | 312° |
| 2026-05-08 08:42 | 45.50039 | 12.33933 | 13 ft | 2 kts | 312° |
| 2026-05-08 08:42 | 45.50028 | 12.33950 | 13 ft | 2 kts | 312° |
| 2026-05-08 08:42 | 45.50020 | 12.33970 | 13 ft | 2 kts | 277° |
| 2026-05-08 08:43 | 45.50020 | 12.33993 | 12 ft | 2 kts | 257° |
| 2026-05-08 08:43 | 45.50025 | 12.34014 | 13 ft | 2 kts | 231° |
| 2026-05-08 08:43 | 45.50026 | 12.34016 | 13 ft | 0 kts | 229° |
| 2026-05-08 08:45 | 45.50009 | 12.33988 | 14 ft | 8 kts | 229° |
| 2026-05-08 08:45 | 45.49950 | 12.33914 | 13 ft | 13 kts | 220° |
| 2026-05-08 08:45 | 45.49865 | 12.33841 | 11 ft | 16 kts | 195° |
| 2026-05-08 08:46 | 45.49756 | 12.33806 | 13 ft | 16 kts | 192° |
| 2026-05-08 08:46 | 45.49658 | 12.33740 | 15 ft | 16 kts | 217° |
| 2026-05-08 08:46 | 45.49571 | 12.33630 | 14 ft | 17 kts | 222° |
| 2026-05-08 08:46 | 45.49476 | 12.33661 | 14 ft | 16 kts | 127° |
| 2026-05-08 08:47 | 45.49436 | 12.33797 | 12 ft | 15 kts | 64° |
| 2026-05-08 08:47 | 45.49463 | 12.33840 | 11 ft | 0 kts | 42° |
| 2026-05-08 08:47 | 45.49576 | 12.33985 | 12 ft | 61 kts | 42° |
| 2026-05-08 08:48 | 45.50092 | 12.34647 | 13 ft | 135 kts | 42° |
| 2026-05-08 08:48 | 45.50891 | 12.35704 | 378 ft | 166 kts | 43° |
| 2026-05-08 08:48 | 45.51751 | 12.36894 | 1102 ft | 183 kts | 45° |
| 2026-05-08 08:48 | 45.52667 | 12.38182 | 2018 ft | 191 kts | 45° |
| 2026-05-08 08:49 | 45.53595 | 12.39590 | 2712 ft | 199 kts | 58° |
| 2026-05-08 08:49 | 45.53907 | 12.41504 | 3341 ft | 204 kts | 98° |
| 2026-05-08 08:49 | 45.53630 | 12.43510 | 3957 ft | 209 kts | 101° |
| 2026-05-08 08:49 | 45.53348 | 12.45563 | 4609 ft | 212 kts | 101° |
| 2026-05-08 08:50 | 45.53056 | 12.47669 | 5140 ft | 224 kts | 101° |
| 2026-05-08 08:50 | 45.52738 | 12.49909 | 5725 ft | 234 kts | 101° |
| 2026-05-08 08:50 | 45.52195 | 12.52079 | 6520 ft | 235 kts | 126° |
| 2026-05-08 08:50 | 45.50952 | 12.53563 | 7176 ft | 241 kts | 157° |
| 2026-05-08 08:51 | 45.49222 | 12.53892 | 7420 ft | 266 kts | 187° |
| 2026-05-08 08:51 | 45.47346 | 12.53452 | 7982 ft | 278 kts | 190° |
| 2026-05-08 08:51 | 45.45432 | 12.52953 | 8766 ft | 282 kts | 190° |
| 2026-05-08 08:51 | 45.43488 | 12.52451 | 9563 ft | 286 kts | 190° |
| 2026-05-08 08:52 | 45.41544 | 12.51963 | 10309 ft | 290 kts | 189° |
| 2026-05-08 08:52 | 45.39489 | 12.51463 | 10611 ft | 312 kts | 189° |
| 2026-05-08 08:52 | 45.37272 | 12.50933 | 10797 ft | 335 kts | 189° |
| 2026-05-08 08:52 | 45.34897 | 12.50370 | 10964 ft | 357 kts | 189° |
| 2026-05-08 08:53 | 45.32453 | 12.49418 | 11278 ft | 372 kts | 206° |
| 2026-05-08 08:53 | 45.30217 | 12.47530 | 11929 ft | 376 kts | 211° |
| 2026-05-08 08:53 | 45.27980 | 12.45582 | 12633 ft | 379 kts | 211° |
| 2026-05-08 08:53 | 45.25706 | 12.43637 | 13253 ft | 384 kts | 210° |
| 2026-05-08 08:54 | 45.23399 | 12.41690 | 13944 ft | 386 kts | 210° |
| 2026-05-08 08:54 | 45.21092 | 12.39756 | 14686 ft | 386 kts | 210° |
| 2026-05-08 08:54 | 45.18785 | 12.37829 | 15427 ft | 385 kts | 210° |
| 2026-05-08 08:54 | 45.16463 | 12.35893 | 15987 ft | 390 kts | 210° |
| 2026-05-08 08:55 | 45.14108 | 12.33931 | 16524 ft | 394 kts | 210° |
| 2026-05-08 08:55 | 45.11751 | 12.31968 | 17271 ft | 393 kts | 210° |
| 2026-05-08 08:55 | 45.09400 | 12.30013 | 17962 ft | 394 kts | 210° |
| 2026-05-08 08:55 | 45.07185 | 12.27680 | 18361 ft | 402 kts | 226° |
| 2026-05-08 08:56 | 45.05565 | 12.24441 | 18801 ft | 407 kts | 240° |
| 2026-05-08 08:56 | 45.04224 | 12.20904 | 19316 ft | 409 kts | 242° |
| 2026-05-08 08:56 | 45.02904 | 12.17331 | 19802 ft | 412 kts | 242° |
| 2026-05-08 08:56 | 45.01568 | 12.13730 | 20216 ft | 416 kts | 242° |
| 2026-05-08 08:57 | 45.00207 | 12.10114 | 20770 ft | 417 kts | 242° |
| 2026-05-08 08:57 | 44.98831 | 12.06500 | 21252 ft | 419 kts | 242° |
| 2026-05-08 08:57 | 44.97437 | 12.02866 | 21636 ft | 423 kts | 241° |
| 2026-05-08 08:57 | 44.96027 | 11.99202 | 22079 ft | 426 kts | 241° |
| 2026-05-08 08:58 | 44.94611 | 11.95529 | 22584 ft | 426 kts | 241° |
| 2026-05-08 08:58 | 44.93203 | 11.91818 | 22927 ft | 431 kts | 244° |
| 2026-05-08 08:58 | 44.92097 | 11.87868 | 23272 ft | 435 kts | 253° |
| 2026-05-08 08:58 | 44.91440 | 11.83698 | 23745 ft | 436 kts | 259° |
| 2026-05-08 08:59 | 44.90873 | 11.79489 | 24122 ft | 438 kts | 259° |
| 2026-05-08 08:59 | 44.90307 | 11.75258 | 24410 ft | 441 kts | 259° |
| 2026-05-08 08:59 | 44.89739 | 11.71059 | 24750 ft | 442 kts | 258° |
| 2026-05-08 08:59 | 44.89154 | 11.66796 | 25131 ft | 443 kts | 258° |
| 2026-05-08 09:00 | 44.88559 | 11.62530 | 25510 ft | 444 kts | 258° |
| 2026-05-08 09:00 | 44.87957 | 11.58255 | 25860 ft | 445 kts | 258° |
| 2026-05-08 09:00 | 44.87350 | 11.53973 | 26182 ft | 446 kts | 258° |
| 2026-05-08 09:00 | 44.86737 | 11.49681 | 26506 ft | 448 kts | 258° |
| 2026-05-08 09:01 | 44.86119 | 11.45368 | 26826 ft | 449 kts | 257° |
| 2026-05-08 09:01 | 44.85498 | 11.41047 | 27099 ft | 451 kts | 257° |
| 2026-05-08 09:01 | 44.84873 | 11.36708 | 27396 ft | 453 kts | 257° |
| 2026-05-08 09:01 | 44.84244 | 11.32355 | 27687 ft | 454 kts | 257° |
| 2026-05-08 09:02 | 44.83614 | 11.28003 | 28041 ft | 453 kts | 257° |
| 2026-05-08 09:02 | 44.82983 | 11.23659 | 28503 ft | 451 kts | 257° |
| 2026-05-08 09:02 | 44.82356 | 11.19352 | 29019 ft | 447 kts | 257° |
| 2026-05-08 09:02 | 44.81733 | 11.15077 | 29520 ft | 444 kts | 257° |
| 2026-05-08 09:03 | 44.81112 | 11.10831 | 29941 ft | 442 kts | 257° |
| 2026-05-08 09:03 | 44.80490 | 11.06593 | 30314 ft | 441 kts | 256° |
| 2026-05-08 09:03 | 44.79868 | 11.02372 | 30690 ft | 439 kts | 256° |
| 2026-05-08 09:03 | 44.79251 | 10.98187 | 31126 ft | 435 kts | 256° |
| 2026-05-08 09:04 | 44.78638 | 10.94043 | 31569 ft | 431 kts | 256° |
| 2026-05-08 09:04 | 44.78028 | 10.89927 | 31983 ft | 428 kts | 255° |
| 2026-05-08 09:04 | 44.77420 | 10.85844 | 32340 ft | 426 kts | 255° |
| 2026-05-08 09:04 | 44.76814 | 10.81778 | 32709 ft | 423 kts | 255° |
| 2026-05-08 09:05 | 44.76210 | 10.77736 | 33102 ft | 420 kts | 254° |
| 2026-05-08 09:05 | 44.75609 | 10.73727 | 33499 ft | 417 kts | 254° |
| 2026-05-08 09:05 | 44.75011 | 10.69747 | 33872 ft | 415 kts | 254° |
| 2026-05-08 09:05 | 44.74414 | 10.65789 | 34213 ft | 413 kts | 253° |
| 2026-05-08 09:06 | 44.73819 | 10.61845 | 34443 ft | 412 kts | 254° |
| 2026-05-08 09:06 | 44.73220 | 10.57896 | 34581 ft | 414 kts | 254° |
| 2026-05-08 09:06 | 44.72616 | 10.53928 | 34741 ft | 415 kts | 254° |
| 2026-05-08 09:06 | 44.72011 | 10.49956 | 34942 ft | 415 kts | 254° |
| 2026-05-08 09:07 | 44.71415 | 10.46046 | 35140 ft | 415 kts | 254° |
| 2026-05-08 09:07 | 44.70807 | 10.42075 | 35277 ft | 417 kts | 254° |
| 2026-05-08 09:07 | 44.70195 | 10.38085 | 35417 ft | 418 kts | 254° |
| 2026-05-08 09:07 | 44.69582 | 10.34094 | 35623 ft | 418 kts | 255° |
| 2026-05-08 09:08 | 44.68968 | 10.30109 | 35799 ft | 417 kts | 255° |
| 2026-05-08 09:08 | 44.68353 | 10.26125 | 35968 ft | 418 kts | 255° |
| 2026-05-08 09:08 | 44.67735 | 10.22132 | 36128 ft | 419 kts | 255° |
| 2026-05-08 09:08 | 44.67113 | 10.18130 | 36275 ft | 420 kts | 255° |
| 2026-05-08 09:09 | 44.66491 | 10.14129 | 36452 ft | 419 kts | 255° |
| 2026-05-08 09:09 | 44.66070 | 10.11428 | 36577 ft | 419 kts | 255° |
| 2026-05-08 09:09 | 44.65445 | 10.07426 | 36724 ft | 420 kts | 255° |
| 2026-05-08 09:09 | 44.64817 | 10.03422 | 36892 ft | 420 kts | 255° |
| 2026-05-08 09:10 | 44.64189 | 9.99420 | 37044 ft | 420 kts | 255° |
| 2026-05-08 09:10 | 44.63564 | 9.95453 | 37043 ft | 423 kts | 255° |
| 2026-05-08 09:10 | 44.62292 | 9.87399 | 37040 ft | 422 kts | 255° |
| 2026-05-08 09:11 | 44.61022 | 9.79396 | 37027 ft | 418 kts | 255° |
| 2026-05-08 09:11 | 44.59755 | 9.71447 | 37036 ft | 417 kts | 255° |
| 2026-05-08 09:12 | 44.58485 | 9.63523 | 37023 ft | 416 kts | 255° |
| 2026-05-08 09:12 | 44.57212 | 9.55618 | 37028 ft | 415 kts | 255° |
| 2026-05-08 09:13 | 44.55933 | 9.47719 | 37031 ft | 415 kts | 255° |
| 2026-05-08 09:13 | 44.54648 | 9.39813 | 37038 ft | 417 kts | 255° |
| 2026-05-08 09:14 | 44.53353 | 9.31882 | 37040 ft | 418 kts | 255° |
| 2026-05-08 09:14 | 44.52046 | 9.23918 | 37021 ft | 420 kts | 255° |
| 2026-05-08 09:15 | 44.50727 | 9.15921 | 37020 ft | 422 kts | 255° |
| 2026-05-08 09:15 | 44.49399 | 9.07903 | 37022 ft | 423 kts | 255° |
| 2026-05-08 09:16 | 44.48069 | 8.99918 | 37011 ft | 424 kts | 255° |
| 2026-05-08 09:16 | 44.46725 | 8.91867 | 36993 ft | 425 kts | 255° |
| 2026-05-08 09:17 | 44.45373 | 8.83817 | 36990 ft | 425 kts | 255° |
| 2026-05-08 09:17 | 44.44015 | 8.75770 | 36987 ft | 425 kts | 255° |
| 2026-05-08 09:18 | 44.42652 | 8.67728 | 37002 ft | 425 kts | 255° |
| 2026-05-08 09:18 | 44.41284 | 8.59693 | 37002 ft | 424 kts | 255° |
| 2026-05-08 09:19 | 44.39911 | 8.51670 | 37019 ft | 424 kts | 255° |
| 2026-05-08 09:19 | 44.38534 | 8.43653 | 37033 ft | 424 kts | 255° |
| 2026-05-08 09:20 | 44.37152 | 8.35648 | 37031 ft | 423 kts | 255° |
| 2026-05-08 09:20 | 44.35766 | 8.27657 | 37040 ft | 423 kts | 255° |
| 2026-05-08 09:21 | 44.34376 | 8.19677 | 37049 ft | 423 kts | 255° |
| 2026-05-08 09:23 | 44.29469 | 7.91775 | 37053 ft | 424 kts | 255° |
| 2026-05-08 09:23 | 44.28047 | 7.83849 | 37044 ft | 424 kts | 252° |
| 2026-05-08 09:23 | 44.26928 | 7.80002 | 37044 ft | 423 kts | 241° |
| 2026-05-08 09:24 | 44.25378 | 7.76524 | 37049 ft | 423 kts | 234° |
| 2026-05-08 09:24 | 44.21302 | 7.70684 | 37057 ft | 425 kts | 222° |
| 2026-05-08 09:25 | 44.16838 | 7.65280 | 37050 ft | 425 kts | 223° |
| 2026-05-08 09:25 | 44.12608 | 7.59545 | 37049 ft | 424 kts | 230° |
| 2026-05-08 09:26 | 44.08759 | 7.53314 | 37044 ft | 424 kts | 231° |
| 2026-05-08 09:26 | 44.04920 | 7.47071 | 37035 ft | 425 kts | 231° |
| 2026-05-08 09:27 | 44.01049 | 7.40863 | 37037 ft | 425 kts | 231° |
| 2026-05-08 09:27 | 43.97161 | 7.34677 | 37008 ft | 426 kts | 231° |
| 2026-05-08 09:28 | 43.93262 | 7.28493 | 37032 ft | 425 kts | 231° |
| 2026-05-08 09:28 | 43.89361 | 7.22319 | 37029 ft | 426 kts | 231° |
| 2026-05-08 09:29 | 43.85484 | 7.16194 | 37014 ft | 426 kts | 231° |
| 2026-05-08 09:29 | 43.81553 | 7.09996 | 37036 ft | 425 kts | 231° |
| 2026-05-08 09:30 | 43.77651 | 7.03856 | 37020 ft | 424 kts | 231° |
| 2026-05-08 09:30 | 43.73773 | 6.97733 | 37001 ft | 422 kts | 234° |
| 2026-05-08 09:31 | 43.70820 | 6.90905 | 37028 ft | 415 kts | 249° |
| 2026-05-08 09:31 | 43.68685 | 6.83496 | 37025 ft | 415 kts | 250° |
| 2026-05-08 09:32 | 43.66531 | 6.76100 | 37025 ft | 415 kts | 250° |
| 2026-05-08 09:32 | 43.64353 | 6.68713 | 37030 ft | 415 kts | 249° |
| 2026-05-08 09:33 | 43.62163 | 6.61333 | 37015 ft | 415 kts | 249° |
| 2026-05-08 09:33 | 43.59966 | 6.53955 | 37016 ft | 416 kts | 249° |
| 2026-05-08 09:34 | 43.57765 | 6.46583 | 37019 ft | 416 kts | 249° |
| 2026-05-08 09:34 | 43.55561 | 6.39218 | 37019 ft | 416 kts | 250° |
| 2026-05-08 09:35 | 43.53351 | 6.31856 | 37022 ft | 416 kts | 250° |
| 2026-05-08 09:35 | 43.51136 | 6.24498 | 37025 ft | 416 kts | 250° |
| 2026-05-08 09:36 | 43.48913 | 6.17135 | 37023 ft | 416 kts | 250° |
| 2026-05-08 09:36 | 43.46686 | 6.09776 | 36988 ft | 416 kts | 250° |
| 2026-05-08 09:37 | 43.44462 | 6.02451 | 37017 ft | 414 kts | 250° |
| 2026-05-08 09:37 | 43.42246 | 5.95165 | 37015 ft | 412 kts | 250° |
| 2026-05-08 09:38 | 43.40039 | 5.87921 | 37022 ft | 410 kts | 250° |
| 2026-05-08 09:38 | 43.37833 | 5.80701 | 37024 ft | 409 kts | 250° |
| 2026-05-08 09:39 | 43.35629 | 5.73510 | 37022 ft | 408 kts | 250° |
| 2026-05-08 09:39 | 43.33428 | 5.66346 | 37031 ft | 406 kts | 250° |
| 2026-05-08 09:40 | 43.31229 | 5.59210 | 37023 ft | 406 kts | 250° |
| 2026-05-08 09:40 | 43.29030 | 5.52089 | 37021 ft | 404 kts | 250° |
| 2026-05-08 09:41 | 43.26836 | 5.45006 | 37032 ft | 403 kts | 250° |
| 2026-05-08 09:41 | 43.24642 | 5.37935 | 37033 ft | 402 kts | 250° |
| 2026-05-08 09:42 | 43.22444 | 5.30886 | 37042 ft | 401 kts | 250° |
| 2026-05-08 09:42 | 43.20239 | 5.23872 | 37035 ft | 400 kts | 250° |
| 2026-05-08 09:43 | 43.18036 | 5.16879 | 37040 ft | 399 kts | 250° |
| 2026-05-08 09:43 | 43.15835 | 5.09907 | 37036 ft | 398 kts | 250° |
| 2026-05-08 09:44 | 43.13634 | 5.02949 | 37039 ft | 398 kts | 250° |
| 2026-05-08 09:44 | 43.11432 | 4.96004 | 37027 ft | 397 kts | 250° |
| 2026-05-08 09:45 | 43.09247 | 4.89131 | 37032 ft | 396 kts | 249° |
| 2026-05-08 09:45 | 43.07038 | 4.82238 | 37041 ft | 396 kts | 247° |
| 2026-05-08 09:46 | 43.03958 | 4.75944 | 37035 ft | 402 kts | 234° |
| 2026-05-08 09:46 | 42.99854 | 4.70647 | 37041 ft | 407 kts | 227° |
| 2026-05-08 09:47 | 42.95585 | 4.65555 | 37050 ft | 407 kts | 227° |
| 2026-05-08 09:47 | 42.91330 | 4.60464 | 37030 ft | 406 kts | 227° |
| 2026-05-08 09:48 | 42.87093 | 4.55377 | 37032 ft | 405 kts | 227° |
| 2026-05-08 09:48 | 42.82865 | 4.50300 | 37046 ft | 405 kts | 227° |
| 2026-05-08 09:49 | 42.78643 | 4.45237 | 37043 ft | 404 kts | 227° |
| 2026-05-08 09:49 | 42.74419 | 4.40182 | 37038 ft | 404 kts | 227° |
| 2026-05-08 09:50 | 42.70198 | 4.35140 | 37046 ft | 404 kts | 226° |
| 2026-05-08 09:50 | 42.65977 | 4.30107 | 37038 ft | 404 kts | 226° |
| 2026-05-08 09:51 | 42.61753 | 4.25080 | 37037 ft | 404 kts | 226° |
| 2026-05-08 09:51 | 42.57525 | 4.20058 | 37038 ft | 404 kts | 226° |
| 2026-05-08 09:52 | 42.53293 | 4.15041 | 37014 ft | 404 kts | 226° |
| 2026-05-08 09:52 | 42.49059 | 4.10031 | 37028 ft | 404 kts | 226° |
| 2026-05-08 09:53 | 42.44823 | 4.05027 | 37043 ft | 404 kts | 226° |
| 2026-05-08 09:53 | 42.40584 | 4.00029 | 37041 ft | 404 kts | 226° |
| 2026-05-08 09:54 | 42.36340 | 3.95034 | 37041 ft | 405 kts | 225° |
| 2026-05-08 09:54 | 42.32090 | 3.90040 | 37032 ft | 404 kts | 225° |
| 2026-05-08 09:55 | 42.27841 | 3.85059 | 37038 ft | 404 kts | 225° |
| 2026-05-08 09:55 | 42.24661 | 3.80508 | 37040 ft | 398 kts | 237° |
| 2026-05-08 09:56 | 42.20973 | 3.73400 | 37038 ft | 398 kts | 237° |
| 2026-05-08 09:56 | 42.17776 | 3.67298 | 37041 ft | 398 kts | 237° |
| 2026-05-08 09:57 | 42.13477 | 3.59149 | 37031 ft | 399 kts | 237° |
| 2026-05-08 09:57 | 42.10276 | 3.53105 | 37038 ft | 399 kts | 236° |
| 2026-05-08 09:58 | 42.07050 | 3.47026 | 37036 ft | 399 kts | 236° |
| 2026-05-08 09:58 | 42.03821 | 3.40952 | 37039 ft | 399 kts | 236° |
| 2026-05-08 09:59 | 42.00590 | 3.34887 | 37038 ft | 399 kts | 236° |
| 2026-05-08 09:59 | 41.97357 | 3.28829 | 37039 ft | 399 kts | 236° |
| 2026-05-08 10:00 | 41.94119 | 3.22776 | 37015 ft | 399 kts | 236° |
| 2026-05-08 10:00 | 41.90886 | 3.16742 | 37038 ft | 398 kts | 236° |
| 2026-05-08 10:01 | 41.87645 | 3.10706 | 37039 ft | 398 kts | 236° |
| 2026-05-08 10:01 | 41.84406 | 3.04685 | 37041 ft | 398 kts | 236° |
| 2026-05-08 10:02 | 41.81160 | 2.98664 | 37043 ft | 398 kts | 236° |
| 2026-05-08 10:02 | 41.77913 | 2.92652 | 37044 ft | 398 kts | 236° |
| 2026-05-08 10:03 | 41.74661 | 2.86643 | 37038 ft | 398 kts | 236° |
| 2026-05-08 10:03 | 41.71406 | 2.80635 | 37026 ft | 399 kts | 235° |
| 2026-05-08 10:04 | 41.68143 | 2.74633 | 37033 ft | 399 kts | 235° |
| 2026-05-08 10:04 | 41.64763 | 2.68741 | 37033 ft | 400 kts | 233° |
| 2026-05-08 10:05 | 41.61325 | 2.62897 | 37031 ft | 400 kts | 233° |
| 2026-05-08 10:05 | 41.57890 | 2.57042 | 37035 ft | 401 kts | 233° |
| 2026-05-08 10:06 | 41.54453 | 2.51167 | 37040 ft | 401 kts | 233° |
| 2026-05-08 10:06 | 41.51018 | 2.45297 | 37036 ft | 401 kts | 233° |
| 2026-05-08 10:07 | 41.47579 | 2.39431 | 37039 ft | 401 kts | 233° |
| 2026-05-08 10:07 | 41.44133 | 2.33565 | 37041 ft | 402 kts | 233° |
| 2026-05-08 10:08 | 41.40684 | 2.27705 | 37051 ft | 402 kts | 233° |
| 2026-05-08 10:08 | 41.37228 | 2.21841 | 37048 ft | 403 kts | 233° |
| 2026-05-08 10:09 | 41.33762 | 2.15973 | 37048 ft | 403 kts | 233° |
| 2026-05-08 10:09 | 41.31075 | 2.09461 | 37044 ft | 403 kts | 247° |
| 2026-05-08 10:10 | 41.29655 | 2.02246 | 37053 ft | 405 kts | 258° |
| 2026-05-08 10:10 | 41.28848 | 1.94831 | 37043 ft | 405 kts | 259° |
| 2026-05-08 10:11 | 41.28037 | 1.87482 | 37048 ft | 405 kts | 258° |
| 2026-05-08 10:11 | 41.27184 | 1.80025 | 37034 ft | 405 kts | 258° |
| 2026-05-08 10:12 | 41.26334 | 1.72673 | 37028 ft | 405 kts | 258° |
| 2026-05-08 10:12 | 41.25467 | 1.65269 | 37030 ft | 406 kts | 258° |
| 2026-05-08 10:13 | 41.24586 | 1.57863 | 37025 ft | 406 kts | 258° |
| 2026-05-08 10:13 | 41.23699 | 1.50446 | 37034 ft | 406 kts | 257° |
| 2026-05-08 10:14 | 41.22809 | 1.43028 | 37036 ft | 407 kts | 257° |
| 2026-05-08 10:14 | 41.21912 | 1.35592 | 37027 ft | 408 kts | 257° |
| 2026-05-08 10:15 | 41.21008 | 1.28141 | 37024 ft | 409 kts | 257° |
| 2026-05-08 10:15 | 41.20098 | 1.20668 | 37020 ft | 410 kts | 257° |
| 2026-05-08 10:16 | 41.19180 | 1.13181 | 37040 ft | 411 kts | 257° |
| 2026-05-08 10:16 | 41.18259 | 1.05675 | 37032 ft | 412 kts | 257° |
| 2026-05-08 10:17 | 41.17330 | 0.98145 | 37023 ft | 413 kts | 257° |